Time;durP1;ratioP1;P1;durP2;ratioP2;P2;SDS_P1;SDS_P2;PMS_P1;PMS_P2;Temp;Humidity;BMP_temperature;BMP_pressure;BME280_temperature;BME280_humidity;BME280_pressure;Samples;Min_cycle;Max_cycle;Signal;HPM_P1;HPM_P2
2021/12/10 00:02:11;;;;;;;;;;;;;;;;;;110362;1274;7991;-75
2021/12/10 00:04:41;;;;;;;;;;;;;;;;;;110186;1274;8513;-75
2021/12/10 00:07:18;;;;;;;;;;;;;;;;;;110446;1274;8062;-75
2021/12/10 00:09:50;;;;;;;;;;;;;;;;;;110527;1274;7997;-75
2021/12/10 00:12:21;;;;;;;;;;;;;;;;;;110349;1274;9690;-77
2021/12/10 00:14:49;;;;;;;;;;;;;;;;;;110617;1273;9778;-76
2021/12/10 00:17:20;;;;;;;;;;;;;;;;;;110317;1275;8958;-75
2021/12/10 00:19:53;;;;;;;;;;;;;;;;;;110185;1277;8047;-76
2021/12/10 00:22:37;;;;;;;;;;;;;;;;;;110414;1273;8049;-76
2021/12/10 00:25:08;;;;;;;;;;;;;;;;;;110389;1273;8887;-75
2021/12/10 00:27:36;;;;;;;;;;;;;;;;;;110553;1274;9690;-75
2021/12/10 00:30:15;;;;;;;;;;;;;;;;;;110662;1273;7955;-76
2021/12/10 00:32:58;;;;;;;;;;;;;;;;;;110596;1274;9702;-75
2021/12/10 00:35:29;;;;;;;;;;;;;;;;;;110586;1273;8939;-76
2021/12/10 00:37:58;;;;;;;;;;;;;;;;;;110659;1273;9244;-75
2021/12/10 00:40:27;;;;;;;;;;;;;;;;;;110439;1274;7963;-75
2021/12/10 00:42:55;;;;;;;;;;;;;;;;;;110637;1274;9690;-75
2021/12/10 00:45:24;;;;;;;;;;;;;;;;;;110637;1274;9731;-75
2021/12/10 00:47:53;;;;;;;;;;;;;;;;;;110654;1273;8078;-75
2021/12/10 00:50:23;;;;;;;;;;;;;;;;;;110644;1274;8767;-75
2021/12/10 00:52:56;;;;;;;;;;;;;;;;;;110623;1274;8376;-76
2021/12/10 00:55:27;;;;;;;;;;;;;;;;;;110557;1274;8811;-76
2021/12/10 00:57:55;;;;;;;;;;;;;;;;;;110654;1274;9721;-75
2021/12/10 01:00:28;;;;;;;;;;;;;;;;;;110328;1274;8374;-74
2021/12/10 01:02:56;;;;;;;;;;;;;;;;;;110688;1274;9718;-75
2021/12/10 01:05:24;;;;;;;;;;;;;;;;;;110646;1274;8087;-76
2021/12/10 01:07:52;;;;;;;;;;;;;;;;;;110649;1274;9691;-75
2021/12/10 01:10:30;;;;;;;;;;;;;;;;;;110455;1274;8018;-75
2021/12/10 01:13:01;;;;;;;;;;;;;;;;;;110397;1274;7983;-76
2021/12/10 01:24:36;;;;;;;;;;;;;;;;;;110764;1274;8386;-76
2021/12/10 01:27:25;;;;;;;;;;;;;;;;;;110905;1274;9690;-75
2021/12/10 01:29:57;;;;;;;;;;;;;;;;;;110387;1276;7987;-75
2021/12/10 01:32:30;;;;;;;;;;;;;;;;;;110274;1277;8790;-76
2021/12/10 01:34:58;;;;;;;;;;;;;;;;;;110932;1274;8407;-76
2021/12/10 01:37:27;;;;;;;;;;;;;;;;;;110877;1274;9708;-75
2021/12/10 01:39:56;;;;;;;;;;;;;;;;;;110868;1274;8954;-75
2021/12/10 01:45:19;;;;;;;;;;;;;;;;;;110671;1272;8381;-75
2021/12/10 01:48:07;;;;;;;;;;;;;;;;;;110881;1272;8320;-75
2021/12/10 01:50:36;;;;;;;;;;;;;;;;;;110869;1272;9711;-75
2021/12/10 01:53:07;;;;;;;;;;;;;;;;;;110535;1274;8924;-75
2021/12/10 01:55:38;;;;;;;;;;;;;;;;;;110834;1272;7964;-75
2021/12/10 01:58:09;;;;;;;;;;;;;;;;;;110841;1274;8014;-75
2021/12/10 02:00:40;;;;;;;;;;;;;;;;;;110646;1274;8386;-75
2021/12/10 02:03:08;;;;;;;;;;;;;;;;;;110866;1274;8368;-77
2021/12/10 02:05:37;;;;;;;;;;;;;;;;;;110836;1272;9702;-74
2021/12/10 02:08:05;;;;;;;;;;;;;;;;;;110714;1274;8788;-75
2021/12/10 02:10:33;;;;;;;;;;;;;;;;;;110561;1274;8381;-75
2021/12/10 02:13:03;;;;;;;;;;;;;;;;;;110518;1272;9712;-74
2021/12/10 02:15:31;;;;;;;;;;;;;;;;;;110889;1272;8440;-75
2021/12/10 02:18:01;;;;;;;;;;;;;;;;;;110905;1274;8925;-75
2021/12/10 02:20:32;;;;;;;;;;;;;;;;;;110869;1273;9736;-74
2021/12/10 02:23:03;;;;;;;;;;;;;;;;;;110860;1274;8361;-75
2021/12/10 02:25:32;;;;;;;;;;;;;;;;;;110842;1274;8924;-74
2021/12/10 02:28:00;;;;;;;;;;;;;;;;;;110864;1274;9695;-75
2021/12/10 02:30:29;;;;;;;;;;;;;;;;;;110726;1272;9100;-75
2021/12/10 02:32:58;;;;;;;;;;;;;;;;;;110901;1272;8808;-75
2021/12/10 02:35:27;;;;;;;;;;;;;;;;;;110905;1274;7981;-75
2021/12/10 02:37:56;;;;;;;;;;;;;;;;;;110863;1273;9690;-75
2021/12/10 02:40:27;;;;;;;;;;;;;;;;;;110842;1274;9714;-74
2021/12/10 02:42:56;;;;;;;;;;;;;;;;;;110706;1274;7985;-74
2021/12/10 02:45:26;;;;;;;;;;;;;;;;;;110864;1273;9701;-75
2021/12/10 02:47:55;;;;;;;;;;;;;;;;;;110857;1274;9703;-74
2021/12/10 02:50:26;;;;;;;;;;;;;;;;;;110709;1274;8788;-75
2021/12/10 02:52:54;;;;;;;;;;;;;;;;;;110554;1274;9704;-75
2021/12/10 02:55:23;;;;;;;;;;;;;;;;;;110879;1274;7993;-75
2021/12/10 02:57:55;;;;;;;;;;;;;;;;;;110796;1274;8933;-75
2021/12/10 03:00:27;;;;;;;;;;;;;;;;;;110589;1274;8759;-75
2021/12/10 03:02:59;;;;;;;;;;;;;;;;;;110507;1274;8994;-75
2021/12/10 03:05:28;;;;;;;;;;;;;;;;;;110660;1274;8053;-75
2021/12/10 03:07:57;;;;;;;;;;;;;;;;;;110832;1272;8388;-75
2021/12/10 03:10:28;;;;;;;;;;;;;;;;;;110545;1274;7933;-75
2021/12/10 03:12:56;;;;;;;;;;;;;;;;;;110694;1274;8790;-75
2021/12/10 03:15:26;;;;;;;;;;;;;;;;;;110872;1273;8797;-75
2021/12/10 03:17:55;;;;;;;;;;;;;;;;;;110913;1274;8008;-75
2021/12/10 03:20:28;;;;;;;;;;;;;;;;;;110892;1273;8956;-75
2021/12/10 03:22:57;;;;;;;;;;;;;;;;;;110878;1274;7979;-75
2021/12/10 03:25:26;;;;;;;;;;;;;;;;;;110830;1273;8384;-75
2021/12/10 03:27:54;;;;;;;;;;;;;;;;;;110431;1274;8791;-75
2021/12/10 03:30:25;;;;;;;;;;;;;;;;;;110554;1275;8961;-75
2021/12/10 03:32:57;;;;;;;;;;;;;;;;;;110821;1272;8785;-75
2021/12/10 03:35:28;;;;;;;;;;;;;;;;;;110883;1272;7971;-75
2021/12/10 03:37:58;;;;;;;;;;;;;;;;;;110911;1272;9701;-75
2021/12/10 03:40:26;;;;;;;;;;;;;;;;;;110893;1272;8288;-75
2021/12/10 03:42:58;;;;;;;;;;;;;;;;;;110865;1272;8975;-75
2021/12/10 03:45:31;;;;;;;;;;;;;;;;;;110849;1274;9693;-75
2021/12/10 03:48:00;;;;;;;;;;;;;;;;;;110859;1272;9709;-75
2021/12/10 03:50:32;;;;;;;;;;;;;;;;;;110854;1273;8008;-75
2021/12/10 03:53:00;;;;;;;;;;;;;;;;;;110826;1272;9269;-75
2021/12/10 03:55:28;;;;;;;;;;;;;;;;;;110896;1272;7981;-76
2021/12/10 03:57:57;;;;;;;;;;;;;;;;;;110863;1274;9710;-75
2021/12/10 04:00:30;;;;;;;;;;;;;;;;;;110828;1274;8883;-80
2021/12/10 04:03:00;;;;;;;;;;;;;;;;;;110862;1273;8376;-75
2021/12/10 04:05:29;;;;;;;;;;;;;;;;;;110881;1274;9563;-76
2021/12/10 04:07:57;;;;;;;;;;;;;;;;;;110857;1272;9690;-75
2021/12/10 04:10:26;;;;;;;;;;;;;;;;;;110859;1272;8340;-75
2021/12/10 04:12:55;;;;;;;;;;;;;;;;;;110858;1273;9694;-75
2021/12/10 04:15:24;;;;;;;;;;;;;;;;;;110658;1274;8026;-75
2021/12/10 04:17:54;;;;;;;;;;;;;;;;;;110834;1274;8366;-75
2021/12/10 04:20:24;;;;;;;;;;;;;;;;;;110771;1274;7965;-75
2021/12/10 04:22:52;;;;;;;;;;;;;;;;;;110873;1272;8956;-75
2021/12/10 04:25:24;;;;;;;;;;;;;;;;;;110670;1274;8771;-75
2021/12/10 04:27:56;;;;;;;;;;;;;;;;;;110847;1273;8379;-75
2021/12/10 04:30:25;;;;;;;;;;;;;;;;;;110823;1274;9703;-75
2021/12/10 04:32:53;;;;;;;;;;;;;;;;;;110699;1274;8923;-74
2021/12/10 04:35:21;;;;;;;;;;;;;;;;;;110455;1274;8365;-74
2021/12/10 04:37:49;;;;;;;;;;;;;;;;;;110536;1274;9691;-75
2021/12/10 04:40:18;;;;;;;;;;;;;;;;;;110753;1273;160751;-75
2021/12/10 04:42:47;;;;;;;;;;;;;;;;;;110911;1274;8434;-75
2021/12/10 04:45:17;;;;;;;;;;;;;;;;;;110407;1274;8931;-75
2021/12/10 04:47:47;;;;;;;;;;;;;;;;;;110882;1274;9724;-75
2021/12/10 04:50:17;;;;;;;;;;;;;;;;;;110871;1272;8377;-75
2021/12/10 04:52:45;;;;;;;;;;;;;;;;;;110908;1272;9733;-76
2021/12/10 04:55:16;;;;;;;;;;;;;;;;;;110521;1274;9005;-76
2021/12/10 04:57:44;;;;;;;;;;;;;;;;;;110708;1274;8788;-75
2021/12/10 05:00:16;;;;;;;;;;;;;;;;;;110942;1274;7999;-75
2021/12/10 05:02:44;;;;;;;;;;;;;;;;;;110917;1274;9694;-75
2021/12/10 05:05:13;;;;;;;;;;;;;;;;;;110407;1273;8788;-76
2021/12/10 05:07:41;;;;;;;;;;;;;;;;;;110674;1274;7933;-76
2021/12/10 05:10:15;;;;;;;;;;;;;;;;;;110805;1274;8786;-76
2021/12/10 05:12:44;;;;;;;;;;;;;;;;;;110834;1273;9767;-75
2021/12/10 05:15:19;;;;;;;;;;;;;;;;;;110878;1272;7997;-77
2021/12/10 05:17:49;;;;;;;;;;;;;;;;;;110595;1274;8207;-77
2021/12/10 05:20:21;;;;;;;;;;;;;;;;;;110702;1274;9783;-75
2021/12/10 05:22:50;;;;;;;;;;;;;;;;;;110901;1274;8887;-75
2021/12/10 05:25:18;;;;;;;;;;;;;;;;;;110687;1274;9694;-77
2021/12/10 05:27:53;;;;;;;;;;;;;;;;;;110895;1274;8269;-78
2021/12/10 05:30:23;;;;;;;;;;;;;;;;;;110837;1272;8055;-77
2021/12/10 05:33:00;;;;;;;;;;;;;;;;;;110742;1274;9690;-77
2021/12/10 05:35:29;;;;;;;;;;;;;;;;;;110993;1273;8797;-74
2021/12/10 05:37:57;;;;;;;;;;;;;;;;;;110771;1272;7929;-74
2021/12/10 05:40:28;;;;;;;;;;;;;;;;;;110971;1274;8393;-74
2021/12/10 05:42:56;;;;;;;;;;;;;;;;;;110748;1272;7985;-73
2021/12/10 05:45:25;;;;;;;;;;;;;;;;;;110477;1274;8400;-71
2021/12/10 05:47:57;;;;;;;;;;;;;;;;;;110697;1274;8363;-74
2021/12/10 05:50:28;;;;;;;;;;;;;;;;;;110911;1273;7983;-71
2021/12/10 05:52:57;;;;;;;;;;;;;;;;;;110833;1272;8783;-71
2021/12/10 05:55:25;;;;;;;;;;;;;;;;;;110847;1272;9717;-72
2021/12/10 05:57:53;;;;;;;;;;;;;;;;;;110879;1272;8372;-72
2021/12/10 06:00:26;;;;;;;;;;;;;;;;;;110848;1273;7981;-71
2021/12/10 06:02:54;;;;;;;;;;;;;;;;;;110887;1274;8218;-71
2021/12/10 06:05:23;;;;;;;;;;;;;;;;;;110858;1273;9278;-71
2021/12/10 06:07:51;;;;;;;;;;;;;;;;;;110897;1274;9693;-71
2021/12/10 06:10:21;;;;;;;;;;;;;;;;;;110577;1274;7952;-72
2021/12/10 06:12:50;;;;;;;;;;;;;;;;;;110827;1272;9738;-72
2021/12/10 06:15:21;;;;;;;;;;;;;;;;;;110534;1275;7957;-71
2021/12/10 06:17:50;;;;;;;;;;;;;;;;;;110910;1274;8661;-73
2021/12/10 06:20:21;;;;;;;;;;;;;;;;;;110871;1273;8937;-73
2021/12/10 06:22:50;;;;;;;;;;;;;;;;;;110854;1274;9704;-74
2021/12/10 06:25:18;;;;;;;;;;;;;;;;;;110912;1274;8027;-74
2021/12/10 06:27:46;;;;;;;;;;;;;;;;;;110865;1273;8773;-74
2021/12/10 06:30:18;;;;;;;;;;;;;;;;;;110856;1273;9699;-74
2021/12/10 06:32:47;;;;;;;;;;;;;;;;;;110819;1272;8785;-73
2021/12/10 06:35:15;;;;;;;;;;;;;;;;;;110933;1274;7971;-74
2021/12/10 06:37:44;;;;;;;;;;;;;;;;;;110730;1274;9693;-73
2021/12/10 06:40:14;;;;;;;;;;;;;;;;;;110855;1272;10167;-73
2021/12/10 06:42:42;;;;;;;;;;;;;;;;;;110872;1274;7962;-73
2021/12/10 06:45:13;;;;;;;;;;;;;;;;;;110866;1273;8797;-73
2021/12/10 06:47:46;;;;;;;;;;;;;;;;;;110876;1274;8375;-74
2021/12/10 06:50:16;;;;;;;;;;;;;;;;;;110863;1272;8371;-74
2021/12/10 06:52:44;;;;;;;;;;;;;;;;;;110610;1274;9997;-75
2021/12/10 06:55:15;;;;;;;;;;;;;;;;;;110837;1272;8727;-75
2021/12/10 06:57:45;;;;;;;;;;;;;;;;;;110842;1272;7976;-73
2021/12/10 07:00:21;;;;;;;;;;;;;;;;;;110846;1272;7988;-74
2021/12/10 07:02:59;;;;;;;;;;;;;;;;;;110845;1272;9710;-75
2021/12/10 07:05:27;;;;;;;;;;;;;;;;;;110212;1276;8790;-74
2021/12/10 07:08:00;;;;;;;;;;;;;;;;;;110856;1272;9093;-74
2021/12/10 07:10:28;;;;;;;;;;;;;;;;;;110449;1274;8038;-73
2021/12/10 07:12:56;;;;;;;;;;;;;;;;;;110642;1274;9775;-73
2021/12/10 07:15:25;;;;;;;;;;;;;;;;;;110359;1274;8376;-74
2021/12/10 07:17:53;;;;;;;;;;;;;;;;;;110646;1273;8923;-73
2021/12/10 07:20:27;;;;;;;;;;;;;;;;;;110655;1274;8015;-74
2021/12/10 07:22:56;;;;;;;;;;;;;;;;;;110663;1274;9720;-75
2021/12/10 07:25:27;;;;;;;;;;;;;;;;;;110681;1274;8019;-77
2021/12/10 07:27:55;;;;;;;;;;;;;;;;;;110370;1274;9694;-75
2021/12/10 07:30:29;;;;;;;;;;;;;;;;;;110589;1275;9266;-76
2021/12/10 07:33:10;;;;;;;;;;;;;;;;;;110632;1274;9729;-73
2021/12/10 07:35:43;;;;;;;;;;;;;;;;;;110629;1273;8874;-74
2021/12/10 07:38:11;;;;;;;;;;;;;;;;;;110204;1275;9760;-77
2021/12/10 07:40:40;;;;;;;;;;;;;;;;;;110570;1274;8405;-76
2021/12/10 07:43:10;;;;;;;;;;;;;;;;;;110392;1274;8913;-76
2021/12/10 07:45:39;;;;;;;;;;;;;;;;;;110603;1273;7977;-75
2021/12/10 07:48:09;;;;;;;;;;;;;;;;;;110629;1274;7966;-77
2021/12/10 07:50:42;;;;;;;;;;;;;;;;;;110627;1274;8943;-77
2021/12/10 07:53:10;;;;;;;;;;;;;;;;;;110639;1274;8613;-75
2021/12/10 07:55:39;;;;;;;;;;;;;;;;;;110610;1273;8884;-74
2021/12/10 07:58:09;;;;;;;;;;;;;;;;;;110639;1273;9687;-72
2021/12/10 08:00:40;;;;;;;;;;;;;;;;;;110621;1274;7986;-72
2021/12/10 08:03:08;;;;;;;;;;;;;;;;;;110612;1274;8958;-72
2021/12/10 08:05:37;;;;;;;;;;;;;;;;;;110630;1274;9705;-73
2021/12/10 08:08:06;;;;;;;;;;;;;;;;;;110681;1274;7968;-73
2021/12/10 08:10:38;;;;;;;;;;;;;;;;;;110545;1274;8390;-73
2021/12/10 08:13:08;;;;;;;;;;;;;;;;;;110788;1272;9691;-73
2021/12/10 08:15:39;;;;;;;;;;;;;;;;;;110867;1272;8939;-73
2021/12/10 08:18:11;;;;;;;;;;;;;;;;;;110689;1272;9752;-74
2021/12/10 08:20:39;;;;;;;;;;;;;;;;;;110809;1273;8436;-73
2021/12/10 08:23:07;;;;;;;;;;;;;;;;;;110642;1273;8019;-73
2021/12/10 08:25:36;;;;;;;;;;;;;;;;;;110860;1274;9694;-73
2021/12/10 08:28:06;;;;;;;;;;;;;;;;;;110872;1272;9693;-73
2021/12/10 08:30:35;;;;;;;;;;;;;;;;;;110864;1273;8358;-75
2021/12/10 08:33:10;;;;;;;;;;;;;;;;;;110482;1274;9691;-75
2021/12/10 08:35:39;;;;;;;;;;;;;;;;;;110827;1274;8790;-73
2021/12/10 08:38:07;;;;;;;;;;;;;;;;;;110862;1274;8018;-73
2021/12/10 08:40:41;;;;;;;;;;;;;;;;;;110864;1273;9710;-74
2021/12/10 08:43:11;;;;;;;;;;;;;;;;;;110683;1274;9730;-75
2021/12/10 08:45:40;;;;;;;;;;;;;;;;;;110826;1272;8375;-73
2021/12/10 08:48:09;;;;;;;;;;;;;;;;;;110685;1274;9261;-73
2021/12/10 08:50:39;;;;;;;;;;;;;;;;;;110904;1274;8494;-73
2021/12/10 08:53:17;;;;;;;;;;;;;;;;;;110895;1272;8930;-74
2021/12/10 08:56:06;;;;;;;;;;;;;;;;;;110443;1274;7991;-74
2021/12/10 08:58:34;;;;;;;;;;;;;;;;;;110569;1274;9771;-74
2021/12/10 09:01:08;;;;;;;;;;;;;;;;;;110660;1274;9700;-74
2021/12/10 09:03:49;;;;;;;;;;;;;;;;;;110681;1273;8011;-74
2021/12/10 09:06:18;;;;;;;;;;;;;;;;;;110478;1273;9446;-74
2021/12/10 09:08:47;;;;;;;;;;;;;;;;;;110591;1273;9732;-74
2021/12/10 09:11:15;;;;;;;;;;;;;;;;;;110387;1274;8073;-74
2021/12/10 09:13:51;;;;;;;;;;;;;;;;;;110569;1274;8036;-74
2021/12/10 09:16:26;;;;;;;;;;;;;;;;;;110487;1275;9726;-74
2021/12/10 09:18:58;;;;;;;;;;;;;;;;;;110830;1272;9687;-76
2021/12/10 09:21:30;;;;;;;;;;;;;;;;;;110677;1274;8979;-75
2021/12/10 09:24:03;;;;;;;;;;;;;;;;;;110887;1274;8999;-73
2021/12/10 09:26:34;;;;;;;;;;;;;;;;;;110905;1272;8011;-73
2021/12/10 09:29:14;;;;;;;;;;;;;;;;;;110815;1272;8768;-73
2021/12/10 09:31:42;;;;;;;;;;;;;;;;;;110836;1272;8787;-74
2021/12/10 09:34:12;;;;;;;;;;;;;;;;;;111159;1273;7984;-74
2021/12/10 09:36:58;;;;;;;;;;;;;;;;;;110789;1274;8405;-74
2021/12/10 09:39:26;;;;;;;;;;;;;;;;;;110896;1273;9364;-74
2021/12/10 09:41:54;;;;;;;;;;;;;;;;;;110997;1274;8368;-75
2021/12/10 09:44:22;;;;;;;;;;;;;;;;;;110869;1274;9713;-74
2021/12/10 09:46:53;;;;;;;;;;;;;;;;;;110915;1274;9701;-75
2021/12/10 09:49:25;;;;;;;;;;;;;;;;;;110821;1272;7984;-74
2021/12/10 09:51:59;;;;;;;;;;;;;;;;;;110833;1272;9687;-74
2021/12/10 09:54:31;;;;;;;;;;;;;;;;;;110553;1274;9692;-73
2021/12/10 09:57:28;;;;;;;;;;;;;;;;;;110650;1274;8118;-76
2021/12/10 10:01:11;;;;;;;;;;;;;;;;;;110063;1281;8130;-74
2021/12/10 10:03:48;;;;;;;;;;;;;;;;;;110134;1274;8969;-73
2021/12/10 10:06:17;;;;;;;;;;;;;;;;;;110879;1272;9702;-74
2021/12/10 10:08:45;;;;;;;;;;;;;;;;;;110305;1274;8276;-74
2021/12/10 10:11:40;;;;;;;;;;;;;;;;;;110777;1274;9707;-75
2021/12/10 10:14:09;;;;;;;;;;;;;;;;;;110860;1274;8773;-73
2021/12/10 10:16:43;;;;;;;;;;;;;;;;;;110850;1274;8372;-76
2021/12/10 10:19:23;;;;;;;;;;;;;;;;;;110669;1274;9713;-77
2021/12/10 10:21:53;;;;;;;;;;;;;;;;;;110636;1274;8058;-74
2021/12/10 10:24:44;;;;;;;;;;;;;;;;;;110852;1273;9065;-74
2021/12/10 10:27:23;;;;;;;;;;;;;;;;;;110431;1274;8728;-73
2021/12/10 10:29:55;;;;;;;;;;;;;;;;;;110605;1274;9696;-74
2021/12/10 10:32:29;;;;;;;;;;;;;;;;;;110357;1274;8362;-73
2021/12/10 10:35:01;;;;;;;;;;;;;;;;;;110557;1273;9705;-74
2021/12/10 10:37:33;;;;;;;;;;;;;;;;;;110820;1272;8774;-74
2021/12/10 10:40:07;;;;;;;;;;;;;;;;;;110902;1274;9707;-74
2021/12/10 10:42:35;;;;;;;;;;;;;;;;;;110835;1274;9708;-74
2021/12/10 10:45:10;;;;;;;;;;;;;;;;;;110808;1272;8447;-74
2021/12/10 10:47:41;;;;;;;;;;;;;;;;;;110402;1274;8942;-74
2021/12/10 10:50:21;;;;;;;;;;;;;;;;;;110259;1274;7955;-75
2021/12/10 10:52:57;;;;;;;;;;;;;;;;;;110303;1277;8770;-74
2021/12/10 10:55:32;;;;;;;;;;;;;;;;;;110611;1274;8423;-75
2021/12/10 10:58:09;;;;;;;;;;;;;;;;;;110298;1275;8000;-73
2021/12/10 11:01:14;;;;;;;;;;;;;;;;;;110553;1272;8032;-75
2021/12/10 11:04:15;;;;;;;;;;;;;;;;;;110843;1274;8360;-75
2021/12/10 11:07:02;;;;;;;;;;;;;;;;;;110921;1272;7982;-73
2021/12/10 11:09:32;;;;;;;;;;;;;;;;;;110853;1272;9558;-73
2021/12/10 11:12:04;;;;;;;;;;;;;;;;;;110885;1274;8618;-73
2021/12/10 11:14:48;;;;;;;;;;;;;;;;;;110707;1275;9686;-74
2021/12/10 11:17:26;;;;;;;;;;;;;;;;;;110508;1274;9711;-74
2021/12/10 11:20:32;;;;;;;;;;;;;;;;;;110842;1272;8117;-74
2021/12/10 11:23:06;;;;;;;;;;;;;;;;;;110819;1274;8767;-73
2021/12/10 11:25:37;;;;;;;;;;;;;;;;;;110766;1274;8247;-74
2021/12/10 11:28:08;;;;;;;;;;;;;;;;;;110719;1274;8081;-76
2021/12/10 11:30:40;;;;;;;;;;;;;;;;;;110477;1274;9700;-74
2021/12/10 11:33:17;;;;;;;;;;;;;;;;;;110848;1274;8004;-74
2021/12/10 11:36:00;;;;;;;;;;;;;;;;;;110651;1274;8784;-75
2021/12/10 11:38:33;;;;;;;;;;;;;;;;;;110874;1272;9701;-75
2021/12/10 11:41:04;;;;;;;;;;;;;;;;;;110857;1273;9052;-75
2021/12/10 11:49:11;;;;;;;;;;;;;;;;;;110319;1273;8788;-75
2021/12/10 11:51:45;;;;;;;;;;;;;;;;;;110484;1275;8565;-76
2021/12/10 11:54:19;;;;;;;;;;;;;;;;;;110828;1274;9515;-74
2021/12/10 11:57:07;;;;;;;;;;;;;;;;;;110847;1274;9717;-75
2021/12/10 11:59:39;;;;;;;;;;;;;;;;;;110655;1274;8464;-73
2021/12/10 12:02:09;;;;;;;;;;;;;;;;;;110759;1274;9104;-76
2021/12/10 12:04:37;;;;;;;;;;;;;;;;;;110803;1272;8411;-73
2021/12/10 12:07:15;;;;;;;;;;;;;;;;;;110549;1275;9791;-74
2021/12/10 12:09:46;;;;;;;;;;;;;;;;;;110446;1274;8014;-74
2021/12/10 12:12:17;;;;;;;;;;;;;;;;;;110830;1272;9703;-74
2021/12/10 12:15:02;;;;;;;;;;;;;;;;;;110631;1273;8449;-74
2021/12/10 12:17:33;;;;;;;;;;;;;;;;;;110548;1273;8884;-75
2021/12/10 12:20:06;;;;;;;;;;;;;;;;;;110255;1276;8015;-75
2021/12/10 12:25:41;;;;;;;;;;;;;;;;;;110881;1274;9738;-75
2021/12/10 12:28:17;;;;;;;;;;;;;;;;;;110870;1272;8967;-73
2021/12/10 12:31:10;;;;;;;;;;;;;;;;;;110881;1272;9706;-75
2021/12/10 12:34:08;;;;;;;;;;;;;;;;;;110869;1274;8740;-74
2021/12/10 12:36:35;;;;;;;;;;;;;;;;;;110796;1274;9219;-74
2021/12/10 12:39:07;;;;;;;;;;;;;;;;;;110504;1274;8985;-74
2021/12/10 12:41:43;;;;;;;;;;;;;;;;;;110495;1274;177338;-76
2021/12/10 12:44:19;;;;;;;;;;;;;;;;;;110833;1274;9424;-74
2021/12/10 12:47:31;;;;;;;;;;;;;;;;;;110849;1273;9712;-77
2021/12/10 12:50:03;;;;;;;;;;;;;;;;;;110228;1274;9129;-75
2021/12/10 12:52:31;;;;;;;;;;;;;;;;;;110600;1274;9111;-76
2021/12/10 12:55:17;;;;;;;;;;;;;;;;;;110813;1274;9700;-73
2021/12/10 12:57:52;;;;;;;;;;;;;;;;;;110842;1274;8754;-74
2021/12/10 13:00:49;;;;;;;;;;;;;;;;;;110930;1272;9408;-75
2021/12/10 13:03:44;;;;;;;;;;;;;;;;;;111013;1275;8334;-77
2021/12/10 13:06:35;;;;;;;;;;;;;;;;;;110814;1274;8159;-76
2021/12/10 13:09:08;;;;;;;;;;;;;;;;;;110463;1274;9703;-75
2021/12/10 13:11:57;;;;;;;;;;;;;;;;;;110911;1274;8441;-76
2021/12/10 13:14:47;;;;;;;;;;;;;;;;;;110511;1281;8323;-76
2021/12/10 13:17:20;;;;;;;;;;;;;;;;;;110616;1274;9327;-77
2021/12/10 13:19:59;;;;;;;;;;;;;;;;;;;;;
2021/12/10 13:23:14;;;;;;;;;;;;;;;;;;110747;1272;8939;-75
2021/12/10 13:25:50;;;;;;;;;;;;;;;;;;110377;1274;9725;-77
2021/12/10 13:28:18;;;;;;;;;;;;;;;;;;110377;1274;8182;-77
2021/12/10 13:30:53;;;;;;;;;;;;;;;;;;110475;1275;9043;-77
2021/12/10 13:33:27;;;;;;;;;;;;;;;;;;110511;1274;9696;-76
2021/12/10 13:35:57;;;;;;;;;;;;;;;;;;110354;1274;9125;-76
2021/12/10 13:38:25;;;;;;;;;;;;;;;;;;110694;1274;9698;-75
2021/12/10 13:40:58;;;;;;;;;;;;;;;;;;110510;1276;8039;-75
2021/12/10 13:43:29;;;;;;;;;;;;;;;;;;110717;1273;8935;-77
2021/12/10 13:46:07;;;;;;;;;;;;;;;;;;110843;1273;9679;-79
2021/12/10 13:48:42;;;;;;;;;;;;;;;;;;110505;1274;8929;-76
2021/12/10 13:51:13;;;;;;;;;;;;;;;;;;110852;1274;7997;-76
2021/12/10 13:53:56;;;;;;;;;;;;;;;;;;110848;1274;8940;-74
2021/12/10 13:56:24;;;;;;;;;;;;;;;;;;110511;1274;9677;-74
2021/12/10 13:58:55;;;;;;;;;;;;;;;;;;110741;1274;9702;-74
2021/12/10 14:01:35;;;;;;;;;;;;;;;;;;110576;1274;8500;-74
2021/12/10 14:04:23;;;;;;;;;;;;;;;;;;110860;1274;8014;-74
2021/12/10 14:06:54;;;;;;;;;;;;;;;;;;110818;1272;8784;-74
2021/12/10 14:09:45;;;;;;;;;;;;;;;;;;110827;1274;8037;-75
2021/12/10 14:12:16;;;;;;;;;;;;;;;;;;110868;1272;10148;-76
2021/12/10 14:14:49;;;;;;;;;;;;;;;;;;110519;1274;9409;-74
2021/12/10 14:17:27;;;;;;;;;;;;;;;;;;110873;1274;8012;-77
2021/12/10 14:20:34;;;;;;;;;;;;;;;;;;111136;1274;8379;-75
2021/12/10 14:23:30;;;;;;;;;;;;;;;;;;110858;1274;8771;-76
2021/12/10 14:26:23;;;;;;;;;;;;;;;;;;111100;1272;8263;-76
2021/12/10 14:29:13;;;;;;;;;;;;;;;;;;111059;1274;8302;-76
2021/12/10 14:32:16;;;;;;;;;;;;;;;;;;110780;1280;8258;-75
2021/12/10 14:35:00;;;;;;;;;;;;;;;;;;111030;1274;9531;-76
2021/12/10 14:37:28;;;;;;;;;;;;;;;;;;110833;1274;8400;-75
2021/12/10 14:40:17;;;;;;;;;;;;;;;;;;110842;1274;8547;-75
2021/12/10 14:43:03;;;;;;;;;;;;;;;;;;110862;1272;9739;-75
2021/12/10 14:45:53;;;;;;;;;;;;;;;;;;110902;1274;9995;-74
2021/12/10 14:48:21;;;;;;;;;;;;;;;;;;110905;1273;8912;-79
2021/12/10 14:51:14;;;;;;;;;;;;;;;;;;110879;1272;8364;-77
2021/12/10 14:54:05;;;;;;;;;;;;;;;;;;110802;1274;7975;-74
2021/12/10 14:56:48;;;;;;;;;;;;;;;;;;110854;1272;8608;-73
2021/12/10 14:59:40;;;;;;;;;;;;;;;;;;110818;1274;9708;-75
2021/12/10 15:02:35;;;;;;;;;;;;;;;;;;110869;1272;10036;-76
2021/12/10 15:05:33;;;;;;;;;;;;;;;;;;110898;1274;8658;-78
2021/12/10 15:08:48;;;;;;;;;;;;;;;;;;110655;1274;8792;-77
2021/12/10 15:11:39;;;;;;;;;;;;;;;;;;110833;1274;9041;-78
2021/12/10 15:14:51;;;;;;;;;;;;;;;;;;110670;1274;9689;-77
2021/12/10 15:17:21;;;;;;;;;;;;;;;;;;110699;1274;8793;-76
2021/12/10 15:19:53;;;;;;;;;;;;;;;;;;110838;1274;8004;-76
2021/12/10 15:22:33;;;;;;;;;;;;;;;;;;110842;1272;9693;-78
2021/12/10 15:25:01;;;;;;;;;;;;;;;;;;110862;1272;9792;-76
2021/12/10 15:27:34;;;;;;;;;;;;;;;;;;110321;1274;9716;-76
2021/12/10 15:30:23;;;;;;;;;;;;;;;;;;110867;1274;8024;-79
2021/12/10 15:36:11;;;;;;;;;;;;;;;;;;110809;1274;8362;-76
2021/12/10 15:38:45;;;;;;;;;;;;;;;;;;110674;1274;9706;-76
2021/12/10 15:41:20;;;;;;;;;;;;;;;;;;110860;1272;8806;-76
2021/12/10 15:43:53;;;;;;;;;;;;;;;;;;110629;1274;9269;-78
2021/12/10 15:46:25;;;;;;;;;;;;;;;;;;110745;1272;8823;-77
2021/12/10 15:49:01;;;;;;;;;;;;;;;;;;110636;1273;8805;-75
2021/12/10 15:54:44;;;;;;;;;;;;;;;;;;110618;1274;9106;-74
2021/12/10 15:57:16;;;;;;;;;;;;;;;;;;110643;1274;9349;-75
2021/12/10 15:59:47;;;;;;;;;;;;;;;;;;110537;1274;9693;-78
2021/12/10 16:02:24;;;;;;;;;;;;;;;;;;110510;1272;8042;-77
2021/12/10 16:05:01;;;;;;;;;;;;;;;;;;110406;1274;9701;-79
2021/12/10 16:08:28;;;;;;;;;;;;;;;;;;110674;1274;8957;-80
2021/12/10 16:10:48;;;;;;;;;;;;;;;;;;110318;1276;8021;-77
2021/12/10 16:13:25;;;;;;;;;;;;;;;;;;110342;1273;8098;-77
2021/12/10 16:16:02;;;;;;;;;;;;;;;;;;110635;1274;8336;-76
2021/12/10 16:18:54;;;;;;;;;;;;;;;;;;110658;1274;8006;-77
2021/12/10 16:21:27;;;;;;;;;;;;;;;;;;110593;1274;8957;-77
2021/12/10 16:24:01;;;;;;;;;;;;;;;;;;110675;1274;9770;-79
2021/12/10 16:26:41;;;;;;;;;;;;;;;;;;110453;1274;8811;-77
2021/12/10 16:29:42;;;;;;;;;;;;;;;;;;110523;1273;8740;-81
2021/12/10 16:32:26;;;;;;;;;;;;;;;;;;110374;1274;9710;-74
2021/12/10 16:34:57;;;;;;;;;;;;;;;;;;110230;1276;8202;-77
2021/12/10 16:37:27;;;;;;;;;;;;;;;;;;110364;1276;8353;-75
2021/12/10 16:39:56;;;;;;;;;;;;;;;;;;110251;1277;8189;-74
2021/12/10 16:42:25;;;;;;;;;;;;;;;;;;110662;1274;8941;-76
2021/12/10 16:44:53;;;;;;;;;;;;;;;;;;110906;1272;9682;-76
2021/12/10 16:47:23;;;;;;;;;;;;;;;;;;110885;1274;8043;-76
2021/12/10 16:49:53;;;;;;;;;;;;;;;;;;110711;1274;9746;-76
2021/12/10 16:52:30;;;;;;;;;;;;;;;;;;110870;1274;7960;-76
2021/12/10 16:55:21;;;;;;;;;;;;;;;;;;110886;1274;8768;-75
2021/12/10 16:57:54;;;;;;;;;;;;;;;;;;110409;1274;9173;-77
2021/12/10 17:00:43;;;;;;;;;;;;;;;;;;110851;1273;9123;-76
2021/12/10 17:03:37;;;;;;;;;;;;;;;;;;110463;1275;8543;-77
2021/12/10 17:06:23;;;;;;;;;;;;;;;;;;110407;1274;9152;-75
2021/12/10 17:09:06;;;;;;;;;;;;;;;;;;110372;1273;9199;-75
2021/12/10 17:11:44;;;;;;;;;;;;;;;;;;110477;1274;7999;-77
2021/12/10 17:14:25;;;;;;;;;;;;;;;;;;110533;1274;8625;-77
2021/12/10 17:17:09;;;;;;;;;;;;;;;;;;110297;1275;9235;-77
2021/12/10 17:19:44;;;;;;;;;;;;;;;;;;110754;1274;8380;-75
2021/12/10 17:22:20;;;;;;;;;;;;;;;;;;110652;1274;9673;-76
2021/12/10 17:25:00;;;;;;;;;;;;;;;;;;110462;1275;8991;-74
2021/12/10 17:27:32;;;;;;;;;;;;;;;;;;110284;1274;8760;-76
2021/12/10 17:30:13;;;;;;;;;;;;;;;;;;110767;1274;9810;-77
2021/12/10 17:32:42;;;;;;;;;;;;;;;;;;110314;1274;9266;-76
2021/12/10 17:35:19;;;;;;;;;;;;;;;;;;110532;1273;9694;-76
2021/12/10 17:37:47;;;;;;;;;;;;;;;;;;110474;1274;8048;-76
2021/12/10 17:40:22;;;;;;;;;;;;;;;;;;110562;1275;8785;-77
2021/12/10 17:42:55;;;;;;;;;;;;;;;;;;110260;1275;8945;-75
2021/12/10 17:45:27;;;;;;;;;;;;;;;;;;110745;1274;9685;-75
2021/12/10 17:48:08;;;;;;;;;;;;;;;;;;;;;
2021/12/10 17:50:45;;;;;;;;;;;;;;;;;;110624;1274;8031;-74
2021/12/10 17:53:18;;;;;;;;;;;;;;;;;;111223;1274;8498;-75
2021/12/10 17:55:51;;;;;;;;;;;;;;;;;;110772;1274;8478;-75
2021/12/10 17:58:23;;;;;;;;;;;;;;;;;;110840;1274;8298;-75
2021/12/10 18:01:09;;;;;;;;;;;;;;;;;;111085;1275;8292;-76
2021/12/10 18:03:48;;;;;;;;;;;;;;;;;;111085;1274;8334;-75